Bill, Wyoming
Current Conditions -  °F | °C
As of 1:15 AM on Sunday 23 Nov 2014 (Local Time) from KGUR Reporting Station
Scattered Clouds Scattered Clouds  
Wind Chill: 37°   Ceiling: Unl
Heat Index: 40°   Visibility: 10mi
Dew Point: 32°   Wind: 5mph
Humidity: 72%   Direction: 280°W
Pressure: 29.66"   Gusts: NA
Location:  42.76°N, 105.39°W
Report Text: KGUR 230815Z AUTO 28004KT 10SM SCT110 05/00 A2966 RMK AO2 T00470001
Loading
Personal Weather Stations






























Interactive Weather Map New forecast layout! Learn more

10-Day Weather Forecast

Advertisements
Track Severe Weather on mobile